sensor_id;sensor_type;location;lat;lon;timestamp;P1;durP1;ratioP1;P2;durP2;ratioP2
12715;SDS011;6422;49.938;9.124;2023-12-04T00:00:00;8.67;;;4.37;;
12715;SDS011;6422;49.938;9.124;2023-12-04T00:02:25;10.30;;;5.00;;
12715;SDS011;6422;49.938;9.124;2023-12-04T00:04:50;7.30;;;4.70;;
12715;SDS011;6422;49.938;9.124;2023-12-04T00:07:16;10.27;;;5.80;;
12715;SDS011;6422;49.938;9.124;2023-12-04T00:09:41;10.93;;;5.80;;
12715;SDS011;6422;49.938;9.124;2023-12-04T00:12:06;9.37;;;5.53;;
12715;SDS011;6422;49.938;9.124;2023-12-04T00:14:31;11.00;;;4.77;;
12715;SDS011;6422;49.938;9.124;2023-12-04T00:16:56;9.23;;;5.22;;
12715;SDS011;6422;49.938;9.124;2023-12-04T00:19:22;7.28;;;4.93;;
12715;SDS011;6422;49.938;9.124;2023-12-04T00:21:47;10.20;;;5.22;;
12715;SDS011;6422;49.938;9.124;2023-12-04T00:24:12;10.38;;;4.35;;
12715;SDS011;6422;49.938;9.124;2023-12-04T00:26:37;8.30;;;4.37;;
12715;SDS011;6422;49.938;9.124;2023-12-04T00:29:02;8.83;;;4.93;;
12715;SDS011;6422;49.938;9.124;2023-12-04T00:31:28;7.67;;;5.07;;
12715;SDS011;6422;49.938;9.124;2023-12-04T00:33:53;7.97;;;4.93;;
12715;SDS011;6422;49.938;9.124;2023-12-04T00:36:18;6.13;;;4.33;;
12715;SDS011;6422;49.938;9.124;2023-12-04T00:38:44;9.73;;;4.63;;
12715;SDS011;6422;49.938;9.124;2023-12-04T00:41:10;5.90;;;3.43;;
12715;SDS011;6422;49.938;9.124;2023-12-04T00:43:35;9.13;;;5.10;;
12715;SDS011;6422;49.938;9.124;2023-12-04T00:46:00;7.60;;;4.57;;
12715;SDS011;6422;49.938;9.124;2023-12-04T00:48:26;7.10;;;3.83;;
12715;SDS011;6422;49.938;9.124;2023-12-04T00:50:51;6.50;;;3.97;;
12715;SDS011;6422;49.938;9.124;2023-12-04T00:53:16;15.00;;;6.90;;
12715;SDS011;6422;49.938;9.124;2023-12-04T00:55:41;9.63;;;5.00;;
12715;SDS011;6422;49.938;9.124;2023-12-04T00:58:07;10.00;;;5.90;;
12715;SDS011;6422;49.938;9.124;2023-12-04T01:00:32;6.00;;;4.43;;
12715;SDS011;6422;49.938;9.124;2023-12-04T01:02:57;10.90;;;5.30;;
12715;SDS011;6422;49.938;9.124;2023-12-04T01:05:22;6.38;;;4.18;;
12715;SDS011;6422;49.938;9.124;2023-12-04T01:07:47;8.90;;;4.07;;
12715;SDS011;6422;49.938;9.124;2023-12-04T01:10:13;8.93;;;5.73;;
12715;SDS011;6422;49.938;9.124;2023-12-04T01:12:38;5.90;;;4.68;;
12715;SDS011;6422;49.938;9.124;2023-12-04T01:15:03;6.70;;;4.03;;
12715;SDS011;6422;49.938;9.124;2023-12-04T01:17:28;10.70;;;5.77;;
12715;SDS011;6422;49.938;9.124;2023-12-04T01:19:53;8.20;;;5.17;;
12715;SDS011;6422;49.938;9.124;2023-12-04T01:22:18;8.27;;;4.30;;
12715;SDS011;6422;49.938;9.124;2023-12-04T01:24:44;7.93;;;5.10;;
12715;SDS011;6422;49.938;9.124;2023-12-04T01:27:09;10.10;;;5.70;;
12715;SDS011;6422;49.938;9.124;2023-12-04T01:29:34;9.00;;;4.50;;
12715;SDS011;6422;49.938;9.124;2023-12-04T01:31:59;9.10;;;4.63;;
12715;SDS011;6422;49.938;9.124;2023-12-04T01:34:24;10.68;;;5.03;;
12715;SDS011;6422;49.938;9.124;2023-12-04T01:36:49;6.90;;;3.95;;
12715;SDS011;6422;49.938;9.124;2023-12-04T01:39:15;6.53;;;4.73;;
12715;SDS011;6422;49.938;9.124;2023-12-04T01:41:40;8.07;;;4.87;;
12715;SDS011;6422;49.938;9.124;2023-12-04T01:44:05;10.43;;;4.20;;
12715;SDS011;6422;49.938;9.124;2023-12-04T01:46:30;7.63;;;4.80;;
12715;SDS011;6422;49.938;9.124;2023-12-04T01:48:55;8.63;;;5.03;;
12715;SDS011;6422;49.938;9.124;2023-12-04T01:51:22;11.70;;;5.20;;
12715;SDS011;6422;49.938;9.124;2023-12-04T01:53:48;5.77;;;4.00;;
12715;SDS011;6422;49.938;9.124;2023-12-04T01:56:14;9.77;;;5.20;;
12715;SDS011;6422;49.938;9.124;2023-12-04T01:58:39;7.10;;;4.57;;
12715;SDS011;6422;49.938;9.124;2023-12-04T02:01:04;11.13;;;5.17;;
12715;SDS011;6422;49.938;9.124;2023-12-04T02:03:30;10.63;;;5.60;;
12715;SDS011;6422;49.938;9.124;2023-12-04T02:05:55;6.43;;;4.77;;
12715;SDS011;6422;49.938;9.124;2023-12-04T02:08:21;10.33;;;5.17;;
12715;SDS011;6422;49.938;9.124;2023-12-04T02:10:47;7.97;;;4.93;;
12715;SDS011;6422;49.938;9.124;2023-12-04T02:13:12;7.63;;;5.10;;
12715;SDS011;6422;49.938;9.124;2023-12-04T02:15:37;8.80;;;5.60;;
12715;SDS011;6422;49.938;9.124;2023-12-04T02:18:03;8.05;;;5.32;;
12715;SDS011;6422;49.938;9.124;2023-12-04T02:20:34;6.73;;;4.70;;
12715;SDS011;6422;49.938;9.124;2023-12-04T02:23:03;10.33;;;6.03;;
12715;SDS011;6422;49.938;9.124;2023-12-04T02:25:28;8.40;;;5.20;;
12715;SDS011;6422;49.938;9.124;2023-12-04T02:27:54;6.83;;;5.17;;
12715;SDS011;6422;49.938;9.124;2023-12-04T02:30:21;7.33;;;4.80;;
12715;SDS011;6422;49.938;9.124;2023-12-04T02:32:47;10.13;;;5.33;;
12715;SDS011;6422;49.938;9.124;2023-12-04T02:35:16;8.17;;;4.70;;
12715;SDS011;6422;49.938;9.124;2023-12-04T02:37:44;10.77;;;4.73;;
12715;SDS011;6422;49.938;9.124;2023-12-04T02:40:10;10.00;;;5.20;;
12715;SDS011;6422;49.938;9.124;2023-12-04T02:42:35;6.50;;;3.77;;
12715;SDS011;6422;49.938;9.124;2023-12-04T02:45:00;8.52;;;4.45;;
12715;SDS011;6422;49.938;9.124;2023-12-04T02:47:26;8.90;;;5.40;;
12715;SDS011;6422;49.938;9.124;2023-12-04T02:49:51;11.33;;;6.17;;
12715;SDS011;6422;49.938;9.124;2023-12-04T02:52:16;12.47;;;7.13;;
12715;SDS011;6422;49.938;9.124;2023-12-04T02:54:41;10.67;;;5.50;;
12715;SDS011;6422;49.938;9.124;2023-12-04T02:57:06;12.97;;;6.43;;
12715;SDS011;6422;49.938;9.124;2023-12-04T02:59:32;9.90;;;5.67;;
12715;SDS011;6422;49.938;9.124;2023-12-04T03:01:57;11.70;;;6.63;;
12715;SDS011;6422;49.938;9.124;2023-12-04T03:04:22;8.25;;;5.05;;
12715;SDS011;6422;49.938;9.124;2023-12-04T03:06:47;9.65;;;5.43;;
12715;SDS011;6422;49.938;9.124;2023-12-04T03:09:12;10.60;;;5.27;;
12715;SDS011;6422;49.938;9.124;2023-12-04T03:11:41;6.27;;;4.63;;
12715;SDS011;6422;49.938;9.124;2023-12-04T03:14:06;11.50;;;5.53;;
12715;SDS011;6422;49.938;9.124;2023-12-04T03:16:31;7.57;;;5.57;;
12715;SDS011;6422;49.938;9.124;2023-12-04T03:18:57;7.33;;;4.70;;
12715;SDS011;6422;49.938;9.124;2023-12-04T03:21:22;9.50;;;5.50;;
12715;SDS011;6422;49.938;9.124;2023-12-04T03:23:47;8.00;;;5.80;;
12715;SDS011;6422;49.938;9.124;2023-12-04T03:26:13;12.57;;;6.10;;
12715;SDS011;6422;49.938;9.124;2023-12-04T03:28:38;7.38;;;4.47;;
12715;SDS011;6422;49.938;9.124;2023-12-04T03:31:03;6.93;;;4.80;;
12715;SDS011;6422;49.938;9.124;2023-12-04T03:33:28;8.00;;;5.20;;
12715;SDS011;6422;49.938;9.124;2023-12-04T03:35:54;8.80;;;5.83;;
12715;SDS011;6422;49.938;9.124;2023-12-04T03:38:19;5.43;;;4.07;;
12715;SDS011;6422;49.938;9.124;2023-12-04T03:40:44;8.50;;;5.80;;
12715;SDS011;6422;49.938;9.124;2023-12-04T03:43:09;9.85;;;5.88;;
12715;SDS011;6422;49.938;9.124;2023-12-04T03:45:34;6.03;;;4.70;;
12715;SDS011;6422;49.938;9.124;2023-12-04T03:47:59;11.68;;;5.57;;
12715;SDS011;6422;49.938;9.124;2023-12-04T03:50:24;13.53;;;5.00;;
12715;SDS011;6422;49.938;9.124;2023-12-04T03:52:50;11.70;;;5.97;;
12715;SDS011;6422;49.938;9.124;2023-12-04T03:55:15;9.90;;;5.10;;
12715;SDS011;6422;49.938;9.124;2023-12-04T03:57:40;11.93;;;6.30;;
12715;SDS011;6422;49.938;9.124;2023-12-04T04:00:05;6.30;;;4.70;;
12715;SDS011;6422;49.938;9.124;2023-12-04T04:02:31;10.17;;;6.73;;
12715;SDS011;6422;49.938;9.124;2023-12-04T04:04:56;7.43;;;5.17;;
12715;SDS011;6422;49.938;9.124;2023-12-04T04:07:21;15.02;;;6.03;;
12715;SDS011;6422;49.938;9.124;2023-12-04T04:09:46;7.47;;;4.97;;
12715;SDS011;6422;49.938;9.124;2023-12-04T04:12:11;9.20;;;5.22;;
12715;SDS011;6422;49.938;9.124;2023-12-04T04:14:37;10.63;;;6.20;;
12715;SDS011;6422;49.938;9.124;2023-12-04T04:17:02;9.77;;;5.60;;
12715;SDS011;6422;49.938;9.124;2023-12-04T04:19:27;9.73;;;5.63;;
12715;SDS011;6422;49.938;9.124;2023-12-04T04:21:52;8.75;;;5.18;;
12715;SDS011;6422;49.938;9.124;2023-12-04T04:24:17;7.20;;;5.05;;
12715;SDS011;6422;49.938;9.124;2023-12-04T04:26:42;11.00;;;5.97;;
12715;SDS011;6422;49.938;9.124;2023-12-04T04:29:08;10.53;;;5.90;;
12715;SDS011;6422;49.938;9.124;2023-12-04T04:31:34;8.33;;;5.30;;
12715;SDS011;6422;49.938;9.124;2023-12-04T04:33:59;9.13;;;5.25;;
12715;SDS011;6422;49.938;9.124;2023-12-04T04:36:24;10.93;;;6.60;;
12715;SDS011;6422;49.938;9.124;2023-12-04T04:38:49;8.07;;;5.30;;
12715;SDS011;6422;49.938;9.124;2023-12-04T04:41:15;9.80;;;5.63;;
12715;SDS011;6422;49.938;9.124;2023-12-04T04:43:40;11.03;;;5.17;;
12715;SDS011;6422;49.938;9.124;2023-12-04T04:46:05;15.20;;;6.23;;
12715;SDS011;6422;49.938;9.124;2023-12-04T04:48:31;11.37;;;6.17;;
12715;SDS011;6422;49.938;9.124;2023-12-04T04:50:56;9.40;;;5.50;;
12715;SDS011;6422;49.938;9.124;2023-12-04T04:53:21;12.82;;;6.13;;
12715;SDS011;6422;49.938;9.124;2023-12-04T04:55:46;9.23;;;5.30;;
12715;SDS011;6422;49.938;9.124;2023-12-04T04:58:11;9.18;;;4.93;;
12715;SDS011;6422;49.938;9.124;2023-12-04T05:00:36;8.00;;;5.15;;
12715;SDS011;6422;49.938;9.124;2023-12-04T05:03:02;6.15;;;4.32;;
12715;SDS011;6422;49.938;9.124;2023-12-04T05:05:27;6.63;;;4.60;;
12715;SDS011;6422;49.938;9.124;2023-12-04T05:07:52;9.25;;;5.70;;
12715;SDS011;6422;49.938;9.124;2023-12-04T05:10:17;7.15;;;4.57;;
12715;SDS011;6422;49.938;9.124;2023-12-04T05:12:42;8.80;;;5.32;;
12715;SDS011;6422;49.938;9.124;2023-12-04T05:15:07;15.63;;;5.50;;
12715;SDS011;6422;49.938;9.124;2023-12-04T05:17:33;7.77;;;5.33;;
12715;SDS011;6422;49.938;9.124;2023-12-04T05:19:58;11.48;;;5.88;;
12715;SDS011;6422;49.938;9.124;2023-12-04T05:22:23;11.87;;;5.50;;
12715;SDS011;6422;49.938;9.124;2023-12-04T05:24:49;7.35;;;5.07;;
12715;SDS011;6422;49.938;9.124;2023-12-04T05:27:14;8.70;;;5.20;;
12715;SDS011;6422;49.938;9.124;2023-12-04T05:29:39;9.50;;;4.40;;
12715;SDS011;6422;49.938;9.124;2023-12-04T05:32:04;9.60;;;4.70;;
12715;SDS011;6422;49.938;9.124;2023-12-04T05:34:29;6.50;;;4.23;;
12715;SDS011;6422;49.938;9.124;2023-12-04T05:36:55;8.80;;;4.70;;
12715;SDS011;6422;49.938;9.124;2023-12-04T05:39:20;11.15;;;5.45;;
12715;SDS011;6422;49.938;9.124;2023-12-04T05:41:45;6.05;;;4.88;;
12715;SDS011;6422;49.938;9.124;2023-12-04T05:44:10;8.90;;;5.32;;
12715;SDS011;6422;49.938;9.124;2023-12-04T05:46:35;8.80;;;5.43;;
12715;SDS011;6422;49.938;9.124;2023-12-04T05:49:00;8.18;;;4.53;;
12715;SDS011;6422;49.938;9.124;2023-12-04T05:51:26;5.70;;;3.70;;
12715;SDS011;6422;49.938;9.124;2023-12-04T05:53:51;5.38;;;3.63;;
12715;SDS011;6422;49.938;9.124;2023-12-04T05:56:16;7.57;;;4.43;;
12715;SDS011;6422;49.938;9.124;2023-12-04T05:58:41;9.77;;;5.00;;
12715;SDS011;6422;49.938;9.124;2023-12-04T06:01:07;8.33;;;4.13;;
12715;SDS011;6422;49.938;9.124;2023-12-04T06:03:32;10.17;;;5.30;;
12715;SDS011;6422;49.938;9.124;2023-12-04T06:05:57;7.50;;;4.70;;
12715;SDS011;6422;49.938;9.124;2023-12-04T06:08:23;6.90;;;4.23;;
12715;SDS011;6422;49.938;9.124;2023-12-04T06:10:48;8.97;;;4.70;;
12715;SDS011;6422;49.938;9.124;2023-12-04T06:13:13;7.70;;;5.40;;
12715;SDS011;6422;49.938;9.124;2023-12-04T06:15:38;7.80;;;5.20;;
12715;SDS011;6422;49.938;9.124;2023-12-04T06:18:03;7.93;;;4.55;;
12715;SDS011;6422;49.938;9.124;2023-12-04T06:20:29;6.33;;;4.40;;
12715;SDS011;6422;49.938;9.124;2023-12-04T06:22:54;6.03;;;4.40;;
12715;SDS011;6422;49.938;9.124;2023-12-04T06:25:20;7.50;;;4.50;;
12715;SDS011;6422;49.938;9.124;2023-12-04T06:27:45;7.37;;;4.57;;
12715;SDS011;6422;49.938;9.124;2023-12-04T06:30:10;7.50;;;4.17;;
12715;SDS011;6422;49.938;9.124;2023-12-04T06:32:36;9.53;;;5.23;;
12715;SDS011;6422;49.938;9.124;2023-12-04T06:35:01;10.23;;;5.20;;
12715;SDS011;6422;49.938;9.124;2023-12-04T06:37:26;7.80;;;4.20;;
12715;SDS011;6422;49.938;9.124;2023-12-04T06:39:52;10.50;;;4.90;;
12715;SDS011;6422;49.938;9.124;2023-12-04T06:42:17;6.83;;;4.10;;
12715;SDS011;6422;49.938;9.124;2023-12-04T06:44:43;8.23;;;4.40;;
12715;SDS011;6422;49.938;9.124;2023-12-04T06:47:08;6.67;;;4.93;;
12715;SDS011;6422;49.938;9.124;2023-12-04T06:49:34;7.90;;;4.20;;
12715;SDS011;6422;49.938;9.124;2023-12-04T06:51:59;5.80;;;4.10;;
12715;SDS011;6422;49.938;9.124;2023-12-04T06:54:24;7.33;;;4.10;;
12715;SDS011;6422;49.938;9.124;2023-12-04T06:56:50;5.90;;;3.27;;
12715;SDS011;6422;49.938;9.124;2023-12-04T06:59:15;8.05;;;4.03;;
12715;SDS011;6422;49.938;9.124;2023-12-04T07:01:40;6.65;;;4.00;;
12715;SDS011;6422;49.938;9.124;2023-12-04T07:04:05;9.23;;;4.67;;
12715;SDS011;6422;49.938;9.124;2023-12-04T07:06:35;5.63;;;3.77;;
12715;SDS011;6422;49.938;9.124;2023-12-04T07:09:00;7.07;;;4.70;;
12715;SDS011;6422;49.938;9.124;2023-12-04T07:11:26;11.57;;;4.50;;
12715;SDS011;6422;49.938;9.124;2023-12-04T07:13:51;6.80;;;4.60;;
12715;SDS011;6422;49.938;9.124;2023-12-04T07:16:16;6.90;;;4.40;;
12715;SDS011;6422;49.938;9.124;2023-12-04T07:18:42;9.13;;;4.17;;
12715;SDS011;6422;49.938;9.124;2023-12-04T07:21:07;8.05;;;4.72;;
12715;SDS011;6422;49.938;9.124;2023-12-04T07:23:32;8.97;;;4.47;;
12715;SDS011;6422;49.938;9.124;2023-12-04T07:25:57;5.97;;;4.70;;
12715;SDS011;6422;49.938;9.124;2023-12-04T07:28:23;6.43;;;4.47;;
12715;SDS011;6422;49.938;9.124;2023-12-04T07:30:49;7.03;;;3.97;;
12715;SDS011;6422;49.938;9.124;2023-12-04T07:33:14;7.07;;;3.90;;
12715;SDS011;6422;49.938;9.124;2023-12-04T07:35:39;5.10;;;2.97;;
12715;SDS011;6422;49.938;9.124;2023-12-04T07:38:04;5.23;;;3.07;;
12715;SDS011;6422;49.938;9.124;2023-12-04T07:40:29;7.60;;;3.87;;
12715;SDS011;6422;49.938;9.124;2023-12-04T07:42:55;8.65;;;5.32;;
12715;SDS011;6422;49.938;9.124;2023-12-04T07:45:20;4.40;;;3.38;;
12715;SDS011;6422;49.938;9.124;2023-12-04T07:47:46;5.37;;;3.60;;
12715;SDS011;6422;49.938;9.124;2023-12-04T07:50:11;6.63;;;4.13;;
12715;SDS011;6422;49.938;9.124;2023-12-04T07:52:36;7.63;;;2.90;;
12715;SDS011;6422;49.938;9.124;2023-12-04T07:55:01;5.23;;;3.47;;
12715;SDS011;6422;49.938;9.124;2023-12-04T07:57:27;6.37;;;4.00;;
12715;SDS011;6422;49.938;9.124;2023-12-04T07:59:52;11.95;;;5.75;;
12715;SDS011;6422;49.938;9.124;2023-12-04T08:02:18;7.27;;;3.43;;
12715;SDS011;6422;49.938;9.124;2023-12-04T08:04:43;3.50;;;3.10;;
12715;SDS011;6422;49.938;9.124;2023-12-04T08:07:08;4.77;;;2.47;;
12715;SDS011;6422;49.938;9.124;2023-12-04T08:09:34;7.53;;;3.87;;
12715;SDS011;6422;49.938;9.124;2023-12-04T08:11:59;6.13;;;3.92;;
12715;SDS011;6422;49.938;9.124;2023-12-04T08:14:24;4.63;;;2.95;;
12715;SDS011;6422;49.938;9.124;2023-12-04T08:16:49;5.47;;;3.33;;
12715;SDS011;6422;49.938;9.124;2023-12-04T08:19:15;6.10;;;4.03;;
12715;SDS011;6422;49.938;9.124;2023-12-04T08:21:40;5.53;;;3.90;;
12715;SDS011;6422;49.938;9.124;2023-12-04T08:24:05;4.40;;;3.37;;
12715;SDS011;6422;49.938;9.124;2023-12-04T08:26:31;7.10;;;2.95;;
12715;SDS011;6422;49.938;9.124;2023-12-04T08:28:56;4.83;;;2.30;;
12715;SDS011;6422;49.938;9.124;2023-12-04T08:31:21;6.00;;;3.50;;
12715;SDS011;6422;49.938;9.124;2023-12-04T08:33:46;4.35;;;2.17;;
12715;SDS011;6422;49.938;9.124;2023-12-04T08:36:12;7.10;;;3.30;;
12715;SDS011;6422;49.938;9.124;2023-12-04T08:38:37;3.27;;;2.67;;
12715;SDS011;6422;49.938;9.124;2023-12-04T08:41:03;8.13;;;3.20;;
12715;SDS011;6422;49.938;9.124;2023-12-04T08:43:28;8.10;;;4.03;;
12715;SDS011;6422;49.938;9.124;2023-12-04T08:45:54;6.97;;;3.40;;
12715;SDS011;6422;49.938;9.124;2023-12-04T08:48:19;6.03;;;3.83;;
12715;SDS011;6422;49.938;9.124;2023-12-04T08:50:44;5.13;;;3.47;;
12715;SDS011;6422;49.938;9.124;2023-12-04T08:53:10;6.60;;;2.83;;
12715;SDS011;6422;49.938;9.124;2023-12-04T08:55:35;6.45;;;4.40;;
12715;SDS011;6422;49.938;9.124;2023-12-04T08:58:00;9.93;;;4.83;;
12715;SDS011;6422;49.938;9.124;2023-12-04T09:00:25;7.18;;;3.60;;
12715;SDS011;6422;49.938;9.124;2023-12-04T09:02:50;6.10;;;3.78;;
12715;SDS011;6422;49.938;9.124;2023-12-04T09:05:16;7.23;;;3.93;;
12715;SDS011;6422;49.938;9.124;2023-12-04T09:07:41;3.90;;;2.60;;
12715;SDS011;6422;49.938;9.124;2023-12-04T09:10:06;5.70;;;3.53;;
12715;SDS011;6422;49.938;9.124;2023-12-04T09:12:32;4.63;;;2.63;;
12715;SDS011;6422;49.938;9.124;2023-12-04T09:14:57;6.57;;;3.10;;
12715;SDS011;6422;49.938;9.124;2023-12-04T09:17:22;5.97;;;3.50;;
12715;SDS011;6422;49.938;9.124;2023-12-04T09:19:47;5.40;;;3.23;;
12715;SDS011;6422;49.938;9.124;2023-12-04T09:22:13;4.07;;;2.70;;
12715;SDS011;6422;49.938;9.124;2023-12-04T09:24:38;4.17;;;2.70;;
12715;SDS011;6422;49.938;9.124;2023-12-04T09:27:03;5.53;;;3.07;;
12715;SDS011;6422;49.938;9.124;2023-12-04T09:29:28;4.30;;;2.37;;
12715;SDS011;6422;49.938;9.124;2023-12-04T09:31:53;9.18;;;3.13;;
12715;SDS011;6422;49.938;9.124;2023-12-04T09:34:19;4.28;;;2.97;;
12715;SDS011;6422;49.938;9.124;2023-12-04T09:36:45;2.90;;;2.30;;
12715;SDS011;6422;49.938;9.124;2023-12-04T09:39:10;6.93;;;3.40;;
12715;SDS011;6422;49.938;9.124;2023-12-04T09:41:35;9.53;;;2.47;;
12715;SDS011;6422;49.938;9.124;2023-12-04T09:44:01;5.83;;;3.27;;
12715;SDS011;6422;49.938;9.124;2023-12-04T09:46:27;5.10;;;3.57;;
12715;SDS011;6422;49.938;9.124;2023-12-04T09:48:52;4.13;;;1.90;;
12715;SDS011;6422;49.938;9.124;2023-12-04T09:51:19;3.47;;;2.70;;
12715;SDS011;6422;49.938;9.124;2023-12-04T09:53:46;4.97;;;3.10;;
12715;SDS011;6422;49.938;9.124;2023-12-04T09:56:12;6.73;;;3.30;;
12715;SDS011;6422;49.938;9.124;2023-12-04T09:58:39;4.23;;;2.73;;
12715;SDS011;6422;49.938;9.124;2023-12-04T10:01:05;3.67;;;2.70;;
12715;SDS011;6422;49.938;9.124;2023-12-04T10:03:31;4.97;;;3.27;;
12715;SDS011;6422;49.938;9.124;2023-12-04T10:05:57;6.70;;;3.17;;
12715;SDS011;6422;49.938;9.124;2023-12-04T10:08:22;4.77;;;2.60;;
12715;SDS011;6422;49.938;9.124;2023-12-04T10:10:48;3.03;;;2.73;;
12715;SDS011;6422;49.938;9.124;2023-12-04T10:13:13;3.23;;;2.23;;
12715;SDS011;6422;49.938;9.124;2023-12-04T10:15:45;5.82;;;2.95;;
12715;SDS011;6422;49.938;9.124;2023-12-04T10:18:23;5.33;;;2.80;;
12715;SDS011;6422;49.938;9.124;2023-12-04T10:20:51;5.43;;;3.37;;
12715;SDS011;6422;49.938;9.124;2023-12-04T10:23:17;4.40;;;2.33;;
12715;SDS011;6422;49.938;9.124;2023-12-04T10:25:42;5.00;;;2.90;;
12715;SDS011;6422;49.938;9.124;2023-12-04T10:28:09;4.00;;;2.47;;
12715;SDS011;6422;49.938;9.124;2023-12-04T10:30:34;4.20;;;2.40;;
12715;SDS011;6422;49.938;9.124;2023-12-04T10:33:03;7.53;;;2.93;;
12715;SDS011;6422;49.938;9.124;2023-12-04T10:35:30;4.13;;;2.73;;
12715;SDS011;6422;49.938;9.124;2023-12-04T10:37:58;11.90;;;3.70;;
12715;SDS011;6422;49.938;9.124;2023-12-04T10:40:27;5.70;;;3.40;;
12715;SDS011;6422;49.938;9.124;2023-12-04T10:45:51;5.13;;;3.60;;
12715;SDS011;6422;49.938;9.124;2023-12-04T10:48:18;4.27;;;3.10;;
12715;SDS011;6422;49.938;9.124;2023-12-04T10:50:44;3.73;;;2.20;;
12715;SDS011;6422;49.938;9.124;2023-12-04T10:53:10;4.93;;;2.90;;
12715;SDS011;6422;49.938;9.124;2023-12-04T10:55:36;4.60;;;3.33;;
12715;SDS011;6422;49.938;9.124;2023-12-04T10:58:02;4.07;;;2.80;;
12715;SDS011;6422;49.938;9.124;2023-12-04T11:00:30;8.20;;;3.63;;
12715;SDS011;6422;49.938;9.124;2023-12-04T11:02:57;5.53;;;3.20;;
12715;SDS011;6422;49.938;9.124;2023-12-04T11:05:26;4.63;;;2.57;;
12715;SDS011;6422;49.938;9.124;2023-12-04T11:07:53;4.50;;;3.03;;
12715;SDS011;6422;49.938;9.124;2023-12-04T11:10:21;4.17;;;2.77;;
12715;SDS011;6422;49.938;9.124;2023-12-04T11:12:47;4.77;;;2.93;;
12715;SDS011;6422;49.938;9.124;2023-12-04T11:15:14;5.90;;;2.47;;
12715;SDS011;6422;49.938;9.124;2023-12-04T11:17:42;3.23;;;2.20;;
12715;SDS011;6422;49.938;9.124;2023-12-04T11:20:10;5.60;;;3.50;;
12715;SDS011;6422;49.938;9.124;2023-12-04T11:22:37;3.40;;;2.90;;
12715;SDS011;6422;49.938;9.124;2023-12-04T11:25:04;3.00;;;2.30;;
12715;SDS011;6422;49.938;9.124;2023-12-04T11:27:30;4.73;;;2.20;;
12715;SDS011;6422;49.938;9.124;2023-12-04T11:29:56;7.50;;;2.63;;
12715;SDS011;6422;49.938;9.124;2023-12-04T11:32:23;8.43;;;4.00;;
12715;SDS011;6422;49.938;9.124;2023-12-04T11:34:54;4.80;;;3.07;;
12715;SDS011;6422;49.938;9.124;2023-12-04T11:37:19;3.70;;;2.70;;
12715;SDS011;6422;49.938;9.124;2023-12-04T11:39:49;3.67;;;2.90;;
12715;SDS011;6422;49.938;9.124;2023-12-04T11:42:18;3.87;;;2.43;;
12715;SDS011;6422;49.938;9.124;2023-12-04T11:44:43;5.90;;;3.33;;
12715;SDS011;6422;49.938;9.124;2023-12-04T11:47:08;3.80;;;2.70;;
12715;SDS011;6422;49.938;9.124;2023-12-04T11:49:34;3.37;;;3.00;;
12715;SDS011;6422;49.938;9.124;2023-12-04T11:52:00;5.67;;;3.00;;
12715;SDS011;6422;49.938;9.124;2023-12-04T11:54:27;6.87;;;3.97;;
12715;SDS011;6422;49.938;9.124;2023-12-04T11:57:35;4.83;;;3.10;;
12715;SDS011;6422;49.938;9.124;2023-12-04T11:59:41;6.37;;;3.53;;
12715;SDS011;6422;49.938;9.124;2023-12-04T12:02:07;5.77;;;2.73;;
12715;SDS011;6422;49.938;9.124;2023-12-04T12:04:32;3.87;;;2.33;;
12715;SDS011;6422;49.938;9.124;2023-12-04T12:06:58;9.10;;;3.90;;
12715;SDS011;6422;49.938;9.124;2023-12-04T12:09:23;23.77;;;3.93;;
12715;SDS011;6422;49.938;9.124;2023-12-04T12:11:48;3.43;;;2.40;;
12715;SDS011;6422;49.938;9.124;2023-12-04T12:14:14;17.73;;;3.23;;
12715;SDS011;6422;49.938;9.124;2023-12-04T12:16:39;5.37;;;3.10;;
12715;SDS011;6422;49.938;9.124;2023-12-04T12:19:04;2.80;;;2.07;;
12715;SDS011;6422;49.938;9.124;2023-12-04T12:21:29;3.75;;;3.10;;
12715;SDS011;6422;49.938;9.124;2023-12-04T12:23:55;7.43;;;4.07;;
12715;SDS011;6422;49.938;9.124;2023-12-04T12:26:20;4.53;;;2.70;;
12715;SDS011;6422;49.938;9.124;2023-12-04T12:28:45;10.43;;;4.50;;
12715;SDS011;6422;49.938;9.124;2023-12-04T12:31:10;8.67;;;4.10;;
12715;SDS011;6422;49.938;9.124;2023-12-04T12:33:35;6.18;;;3.70;;
12715;SDS011;6422;49.938;9.124;2023-12-04T12:36:01;10.60;;;2.93;;
12715;SDS011;6422;49.938;9.124;2023-12-04T12:38:28;6.57;;;4.73;;
12715;SDS011;6422;49.938;9.124;2023-12-04T12:40:54;6.80;;;4.20;;
12715;SDS011;6422;49.938;9.124;2023-12-04T12:43:20;6.07;;;3.77;;
12715;SDS011;6422;49.938;9.124;2023-12-04T12:45:46;5.70;;;3.30;;
12715;SDS011;6422;49.938;9.124;2023-12-04T12:48:15;7.33;;;4.43;;
12715;SDS011;6422;49.938;9.124;2023-12-04T12:50:41;7.83;;;3.87;;
12715;SDS011;6422;49.938;9.124;2023-12-04T12:53:07;6.37;;;4.30;;
12715;SDS011;6422;49.938;9.124;2023-12-04T12:55:32;9.20;;;5.40;;
12715;SDS011;6422;49.938;9.124;2023-12-04T12:57:57;6.23;;;4.23;;
12715;SDS011;6422;49.938;9.124;2023-12-04T13:00:22;10.10;;;5.27;;
12715;SDS011;6422;49.938;9.124;2023-12-04T13:02:48;10.27;;;4.73;;
12715;SDS011;6422;49.938;9.124;2023-12-04T13:05:13;7.67;;;4.13;;
12715;SDS011;6422;49.938;9.124;2023-12-04T13:07:38;7.77;;;4.50;;
12715;SDS011;6422;49.938;9.124;2023-12-04T13:10:03;6.20;;;3.80;;
12715;SDS011;6422;49.938;9.124;2023-12-04T13:12:30;8.33;;;3.90;;
12715;SDS011;6422;49.938;9.124;2023-12-04T13:14:55;6.90;;;4.17;;
12715;SDS011;6422;49.938;9.124;2023-12-04T13:17:20;8.65;;;3.47;;
12715;SDS011;6422;49.938;9.124;2023-12-04T13:19:45;6.03;;;4.10;;
12715;SDS011;6422;49.938;9.124;2023-12-04T13:22:10;7.85;;;4.63;;
12715;SDS011;6422;49.938;9.124;2023-12-04T13:24:35;5.05;;;3.67;;
12715;SDS011;6422;49.938;9.124;2023-12-04T13:27:01;7.32;;;4.28;;
12715;SDS011;6422;49.938;9.124;2023-12-04T13:29:26;8.63;;;3.97;;
12715;SDS011;6422;49.938;9.124;2023-12-04T13:31:51;7.15;;;4.22;;
12715;SDS011;6422;49.938;9.124;2023-12-04T13:34:16;4.27;;;3.60;;
12715;SDS011;6422;49.938;9.124;2023-12-04T13:36:42;11.80;;;4.20;;
12715;SDS011;6422;49.938;9.124;2023-12-04T13:39:07;7.32;;;4.60;;
12715;SDS011;6422;49.938;9.124;2023-12-04T13:41:47;5.40;;;3.20;;
12715;SDS011;6422;49.938;9.124;2023-12-04T13:44:31;5.77;;;4.37;;
12715;SDS011;6422;49.938;9.124;2023-12-04T13:46:58;4.10;;;2.53;;
12715;SDS011;6422;49.938;9.124;2023-12-04T13:49:23;3.10;;;2.42;;
12715;SDS011;6422;49.938;9.124;2023-12-04T13:51:48;4.97;;;3.00;;
12715;SDS011;6422;49.938;9.124;2023-12-04T13:54:14;6.40;;;4.27;;
12715;SDS011;6422;49.938;9.124;2023-12-04T13:56:59;5.10;;;3.97;;
12715;SDS011;6422;49.938;9.124;2023-12-04T13:59:25;5.67;;;3.20;;
12715;SDS011;6422;49.938;9.124;2023-12-04T14:01:52;6.60;;;5.07;;
12715;SDS011;6422;49.938;9.124;2023-12-04T14:04:19;7.13;;;3.70;;
12715;SDS011;6422;49.938;9.124;2023-12-04T14:06:44;22.03;;;4.10;;
12715;SDS011;6422;49.938;9.124;2023-12-04T14:09:10;5.00;;;2.90;;
12715;SDS011;6422;49.938;9.124;2023-12-04T14:11:39;5.07;;;3.00;;
12715;SDS011;6422;49.938;9.124;2023-12-04T14:14:04;4.53;;;3.10;;
12715;SDS011;6422;49.938;9.124;2023-12-04T14:16:30;5.83;;;3.50;;
12715;SDS011;6422;49.938;9.124;2023-12-04T14:18:55;5.87;;;3.67;;
12715;SDS011;6422;49.938;9.124;2023-12-04T14:21:20;4.50;;;2.40;;
12715;SDS011;6422;49.938;9.124;2023-12-04T14:23:45;6.57;;;3.17;;
12715;SDS011;6422;49.938;9.124;2023-12-04T14:26:11;3.55;;;2.92;;
12715;SDS011;6422;49.938;9.124;2023-12-04T14:28:36;10.82;;;4.75;;
12715;SDS011;6422;49.938;9.124;2023-12-04T14:31:01;6.20;;;3.30;;
12715;SDS011;6422;49.938;9.124;2023-12-04T14:33:26;4.13;;;3.10;;
12715;SDS011;6422;49.938;9.124;2023-12-04T14:35:51;6.23;;;4.27;;
12715;SDS011;6422;49.938;9.124;2023-12-04T14:38:18;7.43;;;4.17;;
12715;SDS011;6422;49.938;9.124;2023-12-04T14:40:43;7.28;;;3.67;;
12715;SDS011;6422;49.938;9.124;2023-12-04T14:43:08;7.17;;;3.73;;
12715;SDS011;6422;49.938;9.124;2023-12-04T14:45:35;5.63;;;3.27;;
12715;SDS011;6422;49.938;9.124;2023-12-04T14:48:01;4.93;;;3.47;;
12715;SDS011;6422;49.938;9.124;2023-12-04T14:50:26;6.90;;;3.70;;
12715;SDS011;6422;49.938;9.124;2023-12-04T14:52:52;4.83;;;3.73;;